Terminal Aerodrome Forecast
Issued by NWS

Home | Current Version | Previous Version | Text Only | Print | Product List | Glossary On
Versions: 1 2 3 4 5 6 7 8 9 10 11 12 13 14 15 16 17 18 19 20 21
000
FTUS43 KBIS 250520
TAFJMS
TAF
KJMS 250520Z 2506/2606 36014KT P6SM OVC006
     FM251200 36013G21KT P6SM OVC010
     FM252000 01019G28KT P6SM OVC020
     FM260500 01014G20KT P6SM OVC020=

USA.gov is the U.S. government's official web portal to all federal, state and local government web resources and services.